createdAt,value
2023-05-05T00:01:04.499Z,19.06
2023-05-05T00:03:32.016Z,19.06
2023-05-05T00:05:59.114Z,19.06
2023-05-05T00:08:28.841Z,19.06
2023-05-05T00:10:55.876Z,19.00
2023-05-05T00:13:22.858Z,19.00
2023-05-05T00:15:49.976Z,19.00
2023-05-05T00:18:18.328Z,19.00
2023-05-05T00:20:45.382Z,19.00
2023-05-05T00:23:14.771Z,19.00
2023-05-05T00:25:41.890Z,18.94
2023-05-05T00:28:08.881Z,18.94
2023-05-05T00:30:38.874Z,18.94
2023-05-05T00:33:05.894Z,18.94
2023-05-05T00:35:33.113Z,18.88
2023-05-05T00:38:00.238Z,18.88
2023-05-05T00:40:27.217Z,18.88
2023-05-05T00:42:54.265Z,18.88
2023-05-05T00:45:21.359Z,18.88
2023-05-05T00:47:48.347Z,18.81
2023-05-05T00:50:15.331Z,18.81
2023-05-05T00:52:42.363Z,18.81
2023-05-05T00:55:09.332Z,18.81
2023-05-05T00:57:36.387Z,18.81
2023-05-05T01:00:17.070Z,18.81
2023-05-05T01:02:46.204Z,18.81
2023-05-05T01:05:15.508Z,18.75
2023-05-05T01:07:42.511Z,18.75
2023-05-05T01:10:19.826Z,18.75
2023-05-05T01:12:47.781Z,18.75
2023-05-05T01:15:14.733Z,18.75
2023-05-05T01:17:41.688Z,18.69
2023-05-05T01:20:08.813Z,18.69
2023-05-05T01:22:35.891Z,18.69
2023-05-05T01:25:02.815Z,18.69
2023-05-05T01:27:29.727Z,18.69
2023-05-05T01:29:56.660Z,18.69
2023-05-05T01:32:23.594Z,18.69
2023-05-05T01:34:50.511Z,18.63
2023-05-05T01:37:17.431Z,18.63
2023-05-05T01:39:44.366Z,18.63
2023-05-05T01:42:11.272Z,18.63
2023-05-05T01:44:38.213Z,18.63
2023-05-05T01:47:05.179Z,18.56
2023-05-05T01:49:32.093Z,18.56
2023-05-05T01:51:59.015Z,18.56
2023-05-05T01:54:25.914Z,18.56
2023-05-05T01:56:52.826Z,18.56
2023-05-05T01:59:19.708Z,18.56
2023-05-05T02:01:46.652Z,18.50
2023-05-05T02:04:13.580Z,18.50
2023-05-05T02:06:40.513Z,18.50
2023-05-05T02:09:07.483Z,18.50
2023-05-05T02:11:34.421Z,18.50
2023-05-05T02:14:01.401Z,18.50
2023-05-05T02:16:28.412Z,18.44
2023-05-05T02:18:55.311Z,18.44
2023-05-05T02:21:22.277Z,18.44
2023-05-05T02:23:49.178Z,18.44
2023-05-05T02:26:16.101Z,18.44
2023-05-05T02:28:43.047Z,18.44
2023-05-05T02:31:10.057Z,18.44
2023-05-05T02:33:37.049Z,18.38
2023-05-05T02:36:03.937Z,18.38
2023-05-05T02:38:30.863Z,18.38
2023-05-05T02:40:57.775Z,18.38
2023-05-05T02:43:24.765Z,18.38
2023-05-05T02:45:51.732Z,18.38
2023-05-05T02:48:18.647Z,18.38
2023-05-05T02:50:45.587Z,18.31
2023-05-05T02:53:12.492Z,18.31
2023-05-05T02:55:39.434Z,18.31
2023-05-05T02:58:06.381Z,18.31
2023-05-05T03:00:33.375Z,18.31
2023-05-05T03:03:00.438Z,18.31
2023-05-05T03:05:27.417Z,18.25
2023-05-05T03:07:54.346Z,18.25
2023-05-05T03:10:21.259Z,18.25
2023-05-05T03:12:48.263Z,18.25
2023-05-05T03:15:15.236Z,18.25
2023-05-05T03:17:42.199Z,18.25
2023-05-05T03:20:09.339Z,18.19
2023-05-05T03:22:36.371Z,18.19
2023-05-05T03:25:03.277Z,18.19
2023-05-05T03:27:30.162Z,18.19
2023-05-05T03:29:57.091Z,18.19
2023-05-05T03:32:24.035Z,18.19
2023-05-05T03:34:51.029Z,18.19
2023-05-05T03:37:17.946Z,18.13
2023-05-05T03:39:44.840Z,18.13
2023-05-05T03:42:11.811Z,18.13
2023-05-05T03:44:38.719Z,18.13
2023-05-05T03:47:05.639Z,18.13
2023-05-05T03:49:32.544Z,18.13
2023-05-05T03:51:59.481Z,18.06
2023-05-05T03:54:26.428Z,18.13
2023-05-05T03:56:53.332Z,18.06
2023-05-05T03:59:20.228Z,18.06
2023-05-05T04:01:47.153Z,18.06
2023-05-05T04:04:14.106Z,18.06
2023-05-05T04:06:41.076Z,18.00
2023-05-05T04:09:07.992Z,18.00
2023-05-05T04:11:34.885Z,18.81
2023-05-05T04:14:01.816Z,19.69
2023-05-05T04:16:28.755Z,20.25
2023-05-05T04:18:55.772Z,25.38
2023-05-05T04:21:22.684Z,31.25
2023-05-05T04:23:49.613Z,32.81
2023-05-05T04:26:16.560Z,32.19
2023-05-05T04:28:43.483Z,31.69
2023-05-05T04:31:10.431Z,26.69
2023-05-05T04:33:37.535Z,25.38
2023-05-05T04:36:04.457Z,29.94
2023-05-05T04:38:31.397Z,33.13
2023-05-05T04:40:58.327Z,34.06
2023-05-05T04:43:25.224Z,33.81
2023-05-05T04:45:52.158Z,32.19
2023-05-05T04:48:19.073Z,29.00
2023-05-05T04:50:45.997Z,29.06
2023-05-05T04:53:12.932Z,32.63
2023-05-05T04:55:39.853Z,34.19
2023-05-05T04:58:06.806Z,34.75
2023-05-05T05:00:33.752Z,34.19
2023-05-05T05:03:00.825Z,33.69
2023-05-05T05:05:27.821Z,33.88
2023-05-05T05:07:54.759Z,34.50
2023-05-05T05:10:21.684Z,35.13
2023-05-05T05:12:48.649Z,35.44
2023-05-05T05:15:15.579Z,35.75
2023-05-05T05:17:42.569Z,36.06
2023-05-05T05:20:09.966Z,36.44
2023-05-05T05:22:37.301Z,36.69
2023-05-05T05:25:04.231Z,36.63
2023-05-05T05:27:31.172Z,36.63
2023-05-05T05:29:58.084Z,36.63
2023-05-05T05:32:25.065Z,36.63
2023-05-05T05:34:51.986Z,36.69
2023-05-05T05:37:18.918Z,36.56
2023-05-05T05:39:45.889Z,36.63
2023-05-05T05:42:12.786Z,36.56
2023-05-05T05:44:39.757Z,36.38
2023-05-05T05:47:06.673Z,36.31
2023-05-05T05:49:33.565Z,36.13
2023-05-05T05:52:00.487Z,36.00
2023-05-05T05:54:27.422Z,35.81
2023-05-05T05:56:54.372Z,35.63
2023-05-05T05:59:21.292Z,35.44
2023-05-05T06:01:48.221Z,35.25
2023-05-05T06:04:15.216Z,35.13
2023-05-05T06:06:42.178Z,35.06
2023-05-05T06:09:09.113Z,35.19
2023-05-05T06:11:36.039Z,35.38
2023-05-05T06:14:02.973Z,35.50
2023-05-05T06:16:30.002Z,35.56
2023-05-05T06:18:57.053Z,35.63
2023-05-05T06:21:23.979Z,35.75
2023-05-05T06:23:50.882Z,35.94
2023-05-05T06:26:17.814Z,36.06
2023-05-05T06:28:44.711Z,36.25
2023-05-05T06:31:11.657Z,36.38
2023-05-05T06:33:38.605Z,36.44
2023-05-05T06:36:05.538Z,36.63
2023-05-05T06:38:32.554Z,36.69
2023-05-05T06:40:59.463Z,36.44
2023-05-05T06:43:26.430Z,36.31
2023-05-05T06:45:53.343Z,36.25
2023-05-05T06:48:20.237Z,36.13
2023-05-05T06:50:47.149Z,36.00
2023-05-05T06:53:14.064Z,35.81
2023-05-05T06:55:41.054Z,35.69
2023-05-05T06:58:07.979Z,35.56
2023-05-05T07:00:34.921Z,35.44
2023-05-05T07:03:01.907Z,35.25
2023-05-05T07:05:28.876Z,35.13
2023-05-05T07:07:55.780Z,35.13
2023-05-05T07:10:22.700Z,35.19
2023-05-05T07:12:49.644Z,35.25
2023-05-05T07:15:26.740Z,35.31
2023-05-05T07:17:57.677Z,35.38
2023-05-05T07:20:24.817Z,35.50
2023-05-05T07:22:51.760Z,35.63
2023-05-05T07:25:18.701Z,35.69
2023-05-05T07:27:45.632Z,35.69
2023-05-05T07:30:16.308Z,35.69
2023-05-05T07:32:45.199Z,35.56
2023-05-05T07:35:12.169Z,35.44
2023-05-05T07:37:39.068Z,35.31
2023-05-05T07:40:06.141Z,35.19
2023-05-05T07:42:33.326Z,35.06
2023-05-05T07:45:00.272Z,34.88
2023-05-05T07:47:27.345Z,34.75
2023-05-05T07:49:54.251Z,34.88
2023-05-05T07:52:29.967Z,34.94
2023-05-05T07:55:00.403Z,35.06
2023-05-05T07:57:27.312Z,35.13
2023-05-05T07:59:54.221Z,35.25
2023-05-05T08:02:21.180Z,35.38
2023-05-05T08:04:48.294Z,35.50
2023-05-05T08:07:15.296Z,35.56
2023-05-05T08:09:42.225Z,35.56
2023-05-05T08:12:09.129Z,35.44
2023-05-05T08:14:36.045Z,35.38
2023-05-05T08:17:02.974Z,35.25
2023-05-05T08:19:29.926Z,35.13
2023-05-05T08:21:57.744Z,35.06
2023-05-05T08:24:25.302Z,34.94
2023-05-05T08:26:52.214Z,34.81
2023-05-05T08:29:19.125Z,34.88
2023-05-05T08:31:46.125Z,35.00
2023-05-05T08:34:13.039Z,35.06
2023-05-05T08:36:39.943Z,35.13
2023-05-05T08:39:06.863Z,35.25
2023-05-05T08:41:34.266Z,35.38
2023-05-05T08:44:01.939Z,35.50
2023-05-05T08:46:29.112Z,35.63
2023-05-05T08:48:56.071Z,35.63
2023-05-05T08:51:23.092Z,35.63
2023-05-05T08:53:50.020Z,35.56
2023-05-05T08:56:16.984Z,35.44
2023-05-05T08:58:43.886Z,35.38
2023-05-05T09:01:10.866Z,35.25
2023-05-05T09:03:37.808Z,35.13
2023-05-05T09:06:04.748Z,35.00
2023-05-05T09:08:31.680Z,34.94
2023-05-05T09:10:58.596Z,35.06
2023-05-05T09:13:25.540Z,35.19
2023-05-05T09:15:52.453Z,35.31
2023-05-05T09:18:19.463Z,35.38
2023-05-05T09:20:46.350Z,35.50
2023-05-05T09:23:13.254Z,35.63
2023-05-05T09:25:40.206Z,35.81
2023-05-05T09:28:07.144Z,35.81
2023-05-05T09:30:34.068Z,35.56
2023-05-05T09:33:00.997Z,35.44
2023-05-05T09:35:27.943Z,35.31
2023-05-05T09:37:54.865Z,35.13
2023-05-05T09:40:21.947Z,35.00
2023-05-05T09:42:48.964Z,34.88
2023-05-05T09:45:15.869Z,34.69
2023-05-05T09:47:42.873Z,34.56
2023-05-05T09:50:10.050Z,34.38
2023-05-05T09:52:37.052Z,34.25
2023-05-05T09:55:04.016Z,34.25
2023-05-05T09:57:31.056Z,34.31
2023-05-05T09:59:57.951Z,34.38
2023-05-05T10:02:24.961Z,34.44
2023-05-05T10:04:52.047Z,34.56
2023-05-05T10:07:18.979Z,34.69
2023-05-05T10:09:45.896Z,34.75
2023-05-05T10:12:12.803Z,34.75
2023-05-05T10:14:39.751Z,34.69
2023-05-05T10:17:06.665Z,34.63
2023-05-05T10:19:33.573Z,34.56
2023-05-05T10:22:00.498Z,34.44
2023-05-05T10:24:27.448Z,34.31
2023-05-05T10:26:54.377Z,34.19
2023-05-05T10:29:21.302Z,34.13
2023-05-05T10:31:48.224Z,33.94
2023-05-05T10:34:15.380Z,33.88
2023-05-05T10:36:42.346Z,33.94
2023-05-05T10:39:09.273Z,34.00
2023-05-05T10:41:36.262Z,34.06
2023-05-05T10:44:04.627Z,34.13
2023-05-05T10:46:31.843Z,34.25
2023-05-05T10:48:58.816Z,34.38
2023-05-05T10:51:38.387Z,34.50
2023-05-05T10:54:06.777Z,34.56
2023-05-05T10:56:33.837Z,34.56
2023-05-05T10:59:01.010Z,34.50
2023-05-05T11:01:28.105Z,34.44
2023-05-05T11:03:55.216Z,34.31
2023-05-05T11:06:22.205Z,34.25
2023-05-05T11:08:49.130Z,34.13
2023-05-05T11:11:16.067Z,34.00
2023-05-05T11:13:43.077Z,33.88
2023-05-05T11:16:10.017Z,33.81
2023-05-05T11:18:37.003Z,33.88
2023-05-05T11:21:03.931Z,33.94
2023-05-05T11:23:30.847Z,34.06
2023-05-05T11:25:57.768Z,34.13
2023-05-05T11:28:24.666Z,34.31
2023-05-05T11:30:51.673Z,34.38
2023-05-05T11:33:18.614Z,34.38
2023-05-05T11:35:45.535Z,34.19
2023-05-05T11:38:12.454Z,34.00
2023-05-05T11:40:39.371Z,33.75
2023-05-05T11:43:06.271Z,33.56
2023-05-05T11:45:33.226Z,33.38
2023-05-05T11:48:00.258Z,33.13
2023-05-05T11:50:27.251Z,32.94
2023-05-05T11:52:54.189Z,32.75
2023-05-05T11:55:21.097Z,32.56
2023-05-05T11:57:48.039Z,32.31
2023-05-05T12:00:14.953Z,32.13
2023-05-05T12:02:41.995Z,31.88
2023-05-05T12:05:09.007Z,31.69
2023-05-05T12:07:35.975Z,31.44
2023-05-05T12:10:02.908Z,31.25
2023-05-05T12:12:29.847Z,31.06
2023-05-05T12:14:57.985Z,30.88
2023-05-05T12:17:24.942Z,30.69
2023-05-05T12:19:51.958Z,30.50
2023-05-05T12:22:18.905Z,30.38
2023-05-05T12:24:45.861Z,30.19
2023-05-05T12:27:12.773Z,30.00
2023-05-05T12:29:39.690Z,29.88
2023-05-05T12:32:06.722Z,29.69
2023-05-05T12:34:33.693Z,29.56
2023-05-05T12:37:00.607Z,29.44
2023-05-05T12:39:27.629Z,29.25
2023-05-05T12:41:54.594Z,29.13
2023-05-05T12:44:21.535Z,29.00
2023-05-05T12:46:48.470Z,28.88
2023-05-05T12:49:15.393Z,28.75
2023-05-05T12:51:42.318Z,28.63
2023-05-05T12:54:09.236Z,28.50
2023-05-05T12:56:36.244Z,28.38
2023-05-05T12:59:03.185Z,28.25
2023-05-05T13:01:30.189Z,28.13
2023-05-05T13:03:57.129Z,28.00
2023-05-05T13:06:24.032Z,27.88
2023-05-05T13:08:50.966Z,27.81
2023-05-05T13:11:17.892Z,27.75
2023-05-05T13:13:44.803Z,27.63
2023-05-05T13:16:11.763Z,27.50
2023-05-05T13:18:38.725Z,27.44
2023-05-05T13:21:05.636Z,27.31
2023-05-05T13:23:32.566Z,27.25
2023-05-05T13:25:59.478Z,27.13
2023-05-05T13:28:26.376Z,27.06
2023-05-05T13:30:53.335Z,26.94
2023-05-05T13:33:20.288Z,26.88
2023-05-05T13:35:47.189Z,26.75
2023-05-05T13:38:14.097Z,26.69
2023-05-05T13:40:41.072Z,26.63
2023-05-05T13:43:08.094Z,26.50
2023-05-05T13:45:34.994Z,26.44
2023-05-05T13:48:01.940Z,26.38
2023-05-05T13:50:28.868Z,26.25
2023-05-05T13:52:55.793Z,26.19
2023-05-05T13:55:22.743Z,26.06
2023-05-05T13:57:49.669Z,26.00
2023-05-05T14:00:16.608Z,25.94
2023-05-05T14:02:43.538Z,25.88
2023-05-05T14:05:10.714Z,25.75
2023-05-05T14:07:37.867Z,25.69
2023-05-05T14:10:04.801Z,25.56
2023-05-05T14:12:31.723Z,25.50
2023-05-05T14:14:58.694Z,25.38
2023-05-05T14:17:25.640Z,25.31
2023-05-05T14:19:52.615Z,25.19
2023-05-05T14:22:19.525Z,25.13
2023-05-05T14:24:46.465Z,25.06
2023-05-05T14:27:13.404Z,25.00
2023-05-05T14:29:40.316Z,24.94
2023-05-05T14:32:07.390Z,24.81
2023-05-05T14:34:34.335Z,24.75
2023-05-05T14:37:01.271Z,24.69
2023-05-05T14:39:28.220Z,24.63
2023-05-05T14:41:55.146Z,24.56
2023-05-05T14:44:22.117Z,24.50
2023-05-05T14:46:50.960Z,24.44
2023-05-05T14:49:18.105Z,24.38
2023-05-05T14:51:45.010Z,24.31
2023-05-05T14:54:24.043Z,24.25
2023-05-05T14:56:54.616Z,24.19
2023-05-05T14:59:21.534Z,24.13
2023-05-05T15:01:48.597Z,24.06
2023-05-05T15:04:15.700Z,24.00
2023-05-05T15:06:42.609Z,24.00
2023-05-05T15:09:09.525Z,23.94
2023-05-05T15:11:36.440Z,23.88
2023-05-05T15:14:03.377Z,23.81
2023-05-05T15:16:30.351Z,23.75
2023-05-05T15:18:57.280Z,23.69
2023-05-05T15:21:24.200Z,23.69
2023-05-05T15:23:51.157Z,23.63
2023-05-05T15:26:18.101Z,23.56
2023-05-05T15:28:45.033Z,23.50
2023-05-05T15:31:12.036Z,23.44
2023-05-05T15:33:39.031Z,23.44
2023-05-05T15:36:05.984Z,23.38
2023-05-05T15:38:32.888Z,23.31
2023-05-05T15:40:59.864Z,23.31
2023-05-05T15:43:26.791Z,23.25
2023-05-05T15:45:53.770Z,23.19
2023-05-05T15:48:20.674Z,23.13
2023-05-05T15:50:47.576Z,23.13
2023-05-05T15:53:14.506Z,23.06
2023-05-05T15:55:41.430Z,23.06
2023-05-05T15:58:08.371Z,23.00
2023-05-05T16:00:35.299Z,22.94
2023-05-05T16:03:02.377Z,22.94
2023-05-05T16:05:29.432Z,22.88
2023-05-05T16:07:56.357Z,22.88
2023-05-05T16:10:23.266Z,22.81
2023-05-05T16:12:50.201Z,22.75
2023-05-05T16:15:17.283Z,22.75
2023-05-05T16:17:44.215Z,22.69
2023-05-05T16:20:11.228Z,22.63
2023-05-05T16:22:38.152Z,22.63
2023-05-05T16:25:05.087Z,22.63
2023-05-05T16:27:32.004Z,22.56
2023-05-05T16:29:59.922Z,22.50
2023-05-05T16:32:26.972Z,22.50
2023-05-05T16:34:53.892Z,22.50
2023-05-05T16:37:20.841Z,22.44
2023-05-05T16:39:47.798Z,22.38
2023-05-05T16:42:14.712Z,22.38
2023-05-05T16:44:41.634Z,22.31
2023-05-05T16:47:08.538Z,22.31
2023-05-05T16:49:35.532Z,22.31
2023-05-05T16:52:02.452Z,22.25
2023-05-05T16:54:29.384Z,22.25
2023-05-05T16:56:56.319Z,22.19
2023-05-05T16:59:23.219Z,22.19
2023-05-05T17:01:50.183Z,22.13
2023-05-05T17:04:17.163Z,22.13
2023-05-05T17:06:44.079Z,22.06
2023-05-05T17:09:11.047Z,22.06
2023-05-05T17:11:38.006Z,22.06
2023-05-05T17:14:04.987Z,22.00
2023-05-05T17:16:31.980Z,22.00
2023-05-05T17:18:58.950Z,21.94
2023-05-05T17:21:25.859Z,21.94
2023-05-05T17:23:52.779Z,21.94
2023-05-05T17:26:19.742Z,21.88
2023-05-05T17:28:46.630Z,21.88
2023-05-05T17:31:13.571Z,21.81
2023-05-05T17:33:40.534Z,21.81
2023-05-05T17:36:07.481Z,21.81
2023-05-05T17:38:34.431Z,21.75
2023-05-05T17:41:01.334Z,21.75
2023-05-05T17:43:28.287Z,21.75
2023-05-05T17:45:55.248Z,21.69
2023-05-05T17:48:22.235Z,21.69
2023-05-05T17:50:49.176Z,21.69
2023-05-05T17:53:16.169Z,21.63
2023-05-05T17:55:43.085Z,21.63
2023-05-05T17:58:09.992Z,21.63
2023-05-05T18:00:36.927Z,21.56
2023-05-05T18:03:03.914Z,21.56
2023-05-05T18:05:30.913Z,21.56
2023-05-05T18:07:57.832Z,21.50
2023-05-05T18:10:24.743Z,21.50
2023-05-05T18:12:51.735Z,21.50
2023-05-05T18:15:18.727Z,21.44
2023-05-05T18:17:45.672Z,21.44
2023-05-05T18:20:12.763Z,21.44
2023-05-05T18:22:39.715Z,21.38
2023-05-05T18:25:08.048Z,21.38
2023-05-05T18:27:35.228Z,21.38
2023-05-05T18:30:02.167Z,21.38
2023-05-05T18:32:29.313Z,21.31
2023-05-05T18:34:56.294Z,21.31
2023-05-05T18:37:23.190Z,21.31
2023-05-05T18:39:50.079Z,21.31
2023-05-05T18:42:17.035Z,21.25
2023-05-05T18:44:43.946Z,21.25
2023-05-05T18:47:10.912Z,21.25
2023-05-05T18:49:37.962Z,21.25
2023-05-05T18:52:04.866Z,21.19
2023-05-05T18:54:31.771Z,21.19
2023-05-05T18:56:58.669Z,21.19
2023-05-05T18:59:25.578Z,21.19
2023-05-05T19:01:52.507Z,21.13
2023-05-05T19:04:30.885Z,21.13
2023-05-05T19:06:58.775Z,21.13
2023-05-05T19:09:25.718Z,21.06
2023-05-05T19:11:52.633Z,21.06
2023-05-05T19:14:19.554Z,21.06
2023-05-05T19:16:46.510Z,21.06
2023-05-05T19:19:13.477Z,21.00
2023-05-05T19:21:40.422Z,21.00
2023-05-05T19:24:07.366Z,21.00
2023-05-05T19:26:34.320Z,21.00
2023-05-05T19:29:01.265Z,20.94
2023-05-05T19:31:28.280Z,20.94
2023-05-05T19:33:55.267Z,20.94
2023-05-05T19:36:22.178Z,20.94
2023-05-05T19:38:49.084Z,20.88
2023-05-05T19:41:16.062Z,20.88
2023-05-05T19:43:42.962Z,20.88
2023-05-05T19:46:09.990Z,20.88
2023-05-05T19:48:36.964Z,20.81
2023-05-05T19:51:03.926Z,20.81
2023-05-05T19:53:30.837Z,20.81
2023-05-05T19:55:57.741Z,20.75
2023-05-05T19:58:24.633Z,20.75
2023-05-05T20:00:51.578Z,20.75
2023-05-05T20:03:18.562Z,20.75
2023-05-05T20:05:45.587Z,20.69
2023-05-05T20:08:12.511Z,20.69
2023-05-05T20:10:39.469Z,20.69
2023-05-05T20:13:06.560Z,20.69
2023-05-05T20:15:33.535Z,20.69
2023-05-05T20:18:00.465Z,20.63
2023-05-05T20:20:27.454Z,20.63
2023-05-05T20:22:54.374Z,20.63
2023-05-05T20:25:21.298Z,20.63
2023-05-05T20:27:48.225Z,20.63
2023-05-05T20:30:15.173Z,20.56
2023-05-05T20:32:42.173Z,20.56
2023-05-05T20:35:09.163Z,20.56
2023-05-05T20:37:36.134Z,20.56
2023-05-05T20:40:03.075Z,20.56
2023-05-05T20:42:29.988Z,20.50
2023-05-05T20:44:57.150Z,20.50
2023-05-05T20:47:24.369Z,20.50
2023-05-05T20:49:51.398Z,20.50
2023-05-05T20:52:18.336Z,20.50
2023-05-05T20:54:45.276Z,20.44
2023-05-05T20:57:12.269Z,20.44
2023-05-05T20:59:39.209Z,20.44
2023-05-05T21:02:06.202Z,20.44
2023-05-05T21:04:33.273Z,20.44
2023-05-05T21:07:00.195Z,20.38
2023-05-05T21:09:27.095Z,20.38
2023-05-05T21:11:54.012Z,20.38
2023-05-05T21:14:20.929Z,20.38
2023-05-05T21:16:47.875Z,20.38
2023-05-05T21:19:14.814Z,20.38
2023-05-05T21:21:41.729Z,20.31
2023-05-05T21:24:08.663Z,20.31
2023-05-05T21:26:35.597Z,20.31
2023-05-05T21:29:02.517Z,20.31
2023-05-05T21:31:29.471Z,20.31
2023-05-05T21:33:56.451Z,20.31
2023-05-05T21:36:23.364Z,20.25
2023-05-05T21:38:50.317Z,20.25
2023-05-05T21:41:17.240Z,20.25
2023-05-05T21:43:44.232Z,20.25
2023-05-05T21:46:11.162Z,20.19
2023-05-05T21:48:38.108Z,20.19
2023-05-05T21:51:05.026Z,20.19
2023-05-05T21:53:31.931Z,20.19
2023-05-05T21:55:58.860Z,20.19
2023-05-05T21:58:25.762Z,20.19
2023-05-05T22:00:52.691Z,20.19
2023-05-05T22:03:19.668Z,20.19
2023-05-05T22:05:46.666Z,20.19
2023-05-05T22:08:13.584Z,20.19
2023-05-05T22:10:40.544Z,20.19
2023-05-05T22:13:07.546Z,20.19
2023-05-05T22:15:45.426Z,20.19
2023-05-05T22:18:13.909Z,20.19
2023-05-05T22:20:40.825Z,20.19
2023-05-05T22:23:07.796Z,20.19
2023-05-05T22:25:34.697Z,20.13
2023-05-05T22:28:01.658Z,20.13
2023-05-05T22:30:28.576Z,20.13
2023-05-05T22:32:55.529Z,20.13
2023-05-05T22:35:22.509Z,20.13
2023-05-05T22:37:49.434Z,20.13
2023-05-05T22:40:16.362Z,20.13
2023-05-05T22:42:43.277Z,20.13
2023-05-05T22:45:10.520Z,20.13
2023-05-05T22:47:37.704Z,20.06
2023-05-05T22:50:04.688Z,20.06
2023-05-05T22:52:31.612Z,20.06
2023-05-05T22:54:58.530Z,20.06
2023-05-05T22:57:25.484Z,20.06
2023-05-05T22:59:52.577Z,20.06
2023-05-05T23:02:19.597Z,20.06
2023-05-05T23:04:46.572Z,20.06
2023-05-05T23:07:13.571Z,20.00
2023-05-05T23:09:40.484Z,20.00
2023-05-05T23:12:07.403Z,20.00
2023-05-05T23:14:34.310Z,20.00
2023-05-05T23:17:01.271Z,20.00
2023-05-05T23:19:28.229Z,20.00
2023-05-05T23:21:55.149Z,19.94
2023-05-05T23:24:22.129Z,19.94
2023-05-05T23:26:49.057Z,19.94
2023-05-05T23:29:15.956Z,19.94
2023-05-05T23:31:42.931Z,19.94
2023-05-05T23:34:09.918Z,19.94
2023-05-05T23:36:36.892Z,19.94
2023-05-05T23:39:03.813Z,19.94
2023-05-05T23:41:30.731Z,19.94
2023-05-05T23:43:57.646Z,19.94
2023-05-05T23:46:24.588Z,19.88
2023-05-05T23:48:51.510Z,19.88
2023-05-05T23:51:18.438Z,19.88
2023-05-05T23:53:45.365Z,19.88
2023-05-05T23:56:12.323Z,19.88
2023-05-05T23:58:39.233Z,19.88
